Thomas, Idaho
Current Conditions -  °F | °C
As of 8:53 AM on Wednesday 26 Nov 2014 (Local Time) from KIDA Reporting Station
Broken Clouds Broken Clouds  
Wind Chill: 31°   Ceiling: 10000
Heat Index: 41°   Visibility: 10mi
Dew Point: 35°   Wind: 24mph
Humidity: 79%   Direction: 210°SSW
Pressure: 30.25"   Gusts: 32mph
Location:  43.2718°N, 112.405°W
Report Text: KIDA 261553Z 21021G28KT 10SM SCT050 BKN100 BKN150 05/02 A3025 RMK AO2 PK WND 22029/1541 SLP247 T00500017
Loading
Personal Weather Stations






























Interactive Weather Map New forecast layout! Learn more

10-Day Weather Forecast

Advertisements
Track Severe Weather on mobile